地図

経路データ

SID SEASON NUMBER BASIN SUBBASIN NAME ISO_TIME NATURE LAT LON WMO_WIND WMO_PRES WMO_AGENCY TRACK_TYPE DIST2LAND LANDFALL IFLAG USA_AGENCY USA_ATCF_ID USA_LAT USA_LON USA_RECORD USA_STATUS USA_WIND USA_PRES USA_SSHS USA_R34_NE USA_R34_SE USA_R34_SW USA_R34_NW USA_R50_NE USA_R50_SE USA_R50_SW USA_R50_NW USA_R64_NE USA_R64_SE USA_R64_SW USA_R64_NW USA_POCI USA_ROCI USA_RMW USA_EYE TOKYO_LAT TOKYO_LON TOKYO_GRADE TOKYO_WIND TOKYO_PRES TOKYO_R50_DIR TOKYO_R50_LONG TOKYO_R50_SHORT TOKYO_R30_DIR TOKYO_R30_LONG TOKYO_R30_SHORT TOKYO_LAND CMA_LAT CMA_LON CMA_CAT CMA_WIND CMA_PRES HKO_LAT HKO_LON HKO_CAT HKO_WIND HKO_PRES NEWDELHI_LAT NEWDELHI_LON NEWDELHI_GRADE NEWDELHI_WIND NEWDELHI_PRES NEWDELHI_CI NEWDELHI_DP NEWDELHI_POCI REUNION_LAT REUNION_LON REUNION_TYPE REUNION_WIND REUNION_PRES REUNION_TNUM REUNION_CI REUNION_RMW REUNION_R34_NE REUNION_R34_SE REUNION_R34_SW REUNION_R34_NW REUNION_R50_NE REUNION_R50_SE REUNION_R50_SW REUNION_R50_NW REUNION_R64_NE REUNION_R64_SE REUNION_R64_SW REUNION_R64_NW BOM_LAT BOM_LON BOM_TYPE BOM_WIND BOM_PRES BOM_TNUM BOM_CI BOM_RMW BOM_R34_NE BOM_R34_SE BOM_R34_SW BOM_R34_NW BOM_R50_NE BOM_R50_SE BOM_R50_SW BOM_R50_NW BOM_R64_NE BOM_R64_SE BOM_R64_SW BOM_R64_NW BOM_ROCI BOM_POCI BOM_EYE BOM_POS_METHOD BOM_PRES_METHOD NADI_LAT NADI_LON NADI_CAT NADI_WIND NADI_PRES WELLINGTON_LAT WELLINGTON_LON WELLINGTON_WIND WELLINGTON_PRES DS824_LAT DS824_LON DS824_STAGE DS824_WIND DS824_PRES TD9636_LAT TD9636_LON TD9636_STAGE TD9636_WIND TD9636_PRES TD9635_LAT TD9635_LON TD9635_WIND TD9635_PRES TD9635_ROCI NEUMANN_LAT NEUMANN_LON NEUMANN_CLASS NEUMANN_WIND NEUMANN_PRES MLC_LAT MLC_LON MLC_CLASS MLC_WIND MLC_PRES USA_GUST BOM_GUST BOM_GUST_PER REUNION_GUST REUNION_GUST_PER USA_SEAHGT USA_SEARAD_NE USA_SEARAD_SE USA_SEARAD_SW USA_SEARAD_NW STORM_SPEED STORM_DIR
1888163N19119 1888 20 WP MM NOT_NAMED 1888-06-11 04:00:00 NR 18.5000 118.500 main 215 215 __________O___ -1 18.5000 118.500 7 7 307
1888163N19119 1888 20 WP MM NOT_NAMED 1888-06-11 06:00:00 NR 18.6389 118.304 main 238 241 __________P___ -1 18.6389 118.304 7 7 306
1888163N19119 1888 20 WP MM NOT_NAMED 1888-06-11 09:00:00 NR 18.8451 118.007 main 275 278 __________P___ -1 18.8451 118.007 7 7 306
1888163N19119 1888 20 WP MM NOT_NAMED 1888-06-11 12:00:00 NR 19.0458 117.708 main 311 315 __________P___ -1 19.0458 117.708 7 7 304
1888163N19119 1888 20 WP MM NOT_NAMED 1888-06-11 15:00:00 NR 19.2382 117.403 main 348 348 __________P___ -1 19.2382 117.403 7 7 303
1888163N19119 1888 20 WP MM NOT_NAMED 1888-06-11 16:00:00 NR 19.3000 117.300 main 361 361 __________O___ -1 19.3000 117.300 7 7 302
1888163N19119 1888 20 WP MM NOT_NAMED 1888-06-11 18:00:00 NR 19.4193 117.093 main 384 361 __________P___ -1 19.4193 117.093 7 7 301
1888163N19119 1888 20 WP MM NOT_NAMED 1888-06-11 21:00:00 NR 19.5859 116.787 main 361 343 __________P___ -1 19.5859 116.787 7 6 300
1888163N19119 1888 20 WP MM NOT_NAMED 1888-06-12 00:00:00 NR 19.7347 116.506 main 343 317 __________P___ -1 19.7347 116.506 7 6 299
1888163N19119 1888 20 WP MM NOT_NAMED 1888-06-12 03:00:00 NR 19.8626 116.267 main 317 315 __________P___ -1 19.8626 116.267 7 5 300
1888163N19119 1888 20 WP MM NOT_NAMED 1888-06-12 04:00:00 NR 19.9000 116.200 main 315 303 __________O___ -1 19.9000 116.200 3 4 303
1888163N19119 1888 20 WP MM NOT_NAMED 1888-06-12 06:00:00 NR 19.9696 116.088 main 303 291 __________P___ -1 19.9696 116.088 3 3 305
1888163N19119 1888 20 WP MM NOT_NAMED 1888-06-12 09:00:00 NR 20.0552 115.964 main 291 287 __________P___ -1 20.0552 115.964 3 3 308
1888163N19119 1888 20 WP MM NOT_NAMED 1888-06-12 12:00:00 NR 20.1240 115.879 main 287 273 __________P___ -1 20.1240 115.879 3 2 313
1888163N19119 1888 20 WP MM NOT_NAMED 1888-06-12 15:00:00 NR 20.1820 115.818 main 273 273 __________P___ -1 20.1820 115.818 3 2 313
1888163N19119 1888 20 WP MM NOT_NAMED 1888-06-12 16:00:00 NR 20.2000 115.800 main 273 273 __________O___ -1 20.2000 115.800 4 1 322
1888163N19119 1888 20 WP MM NOT_NAMED 1888-06-12 18:00:00 NR 20.2363 115.776 main 273 263 __________P___ -1 20.2363 115.776 4 1 331
1888163N19119 1888 20 WP MM NOT_NAMED 1888-06-12 21:00:00 NR 20.2844 115.753 main 263 259 __________P___ -1 20.2844 115.753 4 1 327
1888163N19119 1888 20 WP MM NOT_NAMED 1888-06-13 00:00:00 NR 20.3306 115.719 main 259 245 __________P___ -1 20.3306 115.719 4 1 313
1888163N19119 1888 20 WP MM NOT_NAMED 1888-06-13 03:00:00 NR 20.3811 115.641 main 245 245 __________P___ -1 20.3811 115.641 4 2 302
1888163N19119 1888 20 WP MM NOT_NAMED 1888-06-13 04:00:00 NR 20.4000 115.600 main 245 242 __________O___ -1 20.4000 115.600 4 3 291
1888163N19119 1888 20 WP MM NOT_NAMED 1888-06-13 06:00:00 NR 20.4392 115.479 main 242 221 __________P___ -1 20.4392 115.479 4 4 287
1888163N19119 1888 20 WP MM NOT_NAMED 1888-06-13 09:00:00 NR 20.5040 115.247 main 221 203 __________P___ -1 20.5040 115.247 4 5 287
1888163N19119 1888 20 WP MM NOT_NAMED 1888-06-13 12:00:00 NR 20.5789 114.977 main 203 183 __________P___ -1 20.5789 114.977 4 5 287
1888163N19119 1888 20 WP MM NOT_NAMED 1888-06-13 15:00:00 NR 20.6671 114.693 main 183 181 __________P___ -1 20.6671 114.693 4 6 289
1888163N19119 1888 20 WP MM NOT_NAMED 1888-06-13 16:00:00 NR 20.7000 114.600 main 181 168 __________O___ -1 20.7000 114.600 4 6 292
1888163N19119 1888 20 WP MM NOT_NAMED 1888-06-13 18:00:00 NR 20.7714 114.420 main 168 156 __________P___ -1 20.7714 114.420 4 5 295
1888163N19119 1888 20 WP MM NOT_NAMED 1888-06-13 21:00:00 NR 20.8904 114.163 main 156 137 __________P___ -1 20.8904 114.163 4 5 298
1888163N19119 1888 20 WP MM NOT_NAMED 1888-06-14 00:00:00 NR 21.0196 113.918 main 137 106 __________P___ -1 21.0196 113.918 4 5 300
1888163N19119 1888 20 WP MM NOT_NAMED 1888-06-14 03:00:00 NR 21.1545 113.679 main 106 99 __________P___ -1 21.1545 113.679 4 5 301
1888163N19119 1888 20 WP MM NOT_NAMED 1888-06-14 04:00:00 NR 21.2000 113.600 main 99 __________O___ -1 21.2000 113.600 4 5 305

デジタル台風データ・検索

IBTrACS Databaseについて

本データベースは、米国NOAAが公開する1842年以降の世界の熱帯低気圧のベストトラックデータアーカイブInternational Best Track Archive for Climate Stewardship (IBTrACS)を、ウェブで閲覧しやすい形式に変換したものです。

最終更新日:2021-12-08